Stanley, ID

12:39 AM MDT on October 23, 2014 (GMT -0600)
Friedman Memorial | Change Station
CLOSE
Current Station
Airport
Location: Hailey,
Elevation: 5315 ft
Nearby Weather Stations

Elev 5315 ft 43.50 °N, 114.30 °W | Updated 24 minutes ago

Overcast
Overcast
43 °F
Feels Like 39 °F
N
7
Wind Variable Wind from NW

Today
High -- | Low -- °F
--% Chance of Precip.
Yesterday
High -- | Low -- °F
Precip. -- in
8:04 AM 6:42 PM
Waning Crescent, 0% visible
Pressure 30.15 in
Visibility 10.0 miles
Clouds Scattered Clouds 7000 ft
Scattered Clouds 8000 ft
Mostly Cloudy 11000 ft
Windchill 39 °F
Dew Point 32 °F
Humidity 66%
Rainfall 0.00 in
Snow Depth Not available.
UV 0 out of 12
Pollen 3.90 out of 12
Air Quality Not available.
Flu Activity Sporadic
METAR KSUN 230615Z AUTO 31006KT 10SM SCT070 SCT080 BKN110 06/00 A3015 RMK AO2

More Conditions Fewer Conditions

Pressure 30.15 in
Visibility 10.0 miles
Clouds Scattered Clouds 7000 ft
Scattered Clouds 8000 ft
Mostly Cloudy 11000 ft
Windchill 39 °F
Dew Point 32 °F
Humidity 66%
Rainfall 0.00 in
Snow Depth Not available.
UV 0 out of 12
Pollen 3.90 out of 12
Air Quality Not available.
Flu Activity Sporadic
METAR KSUN 230615Z AUTO 31006KT 10SM SCT070 SCT080 BKN110 06/00 A3015 RMK AO2

More Conditions Fewer Conditions

10-Day Weather Forecast

Almanac

Astronomy

Oct. 23, 2014 Rise Set
Actual Time 8:04 AM MDT 6:42 PM MDT
Civil Twilight 7:35 AM MDT 7:11 PM MDT
Nautical Twilight 7:01 AM MDT 7:45 PM MDT
Astronomical Twilight 6:27 AM MDT 8:19 PM MDT
Moon 7:48 AM MDT 6:46 PM MDT
Length of Visible Light 11h 36m
Length of Day
10h 37m
Tomorrow will be 2m 51s shorter.
Waning Crescent, 0% of the Moon is Illuminated
Today
Waning Crescent
Oct 23
New
Oct 30
First Quarter
Nov 6
Full
Nov 14
Last Quarter

Community

WunderPhotos

Upload Photos

1,764,194 photos uploaded!

Nearby

Snow Depth

Station Depth Elevation
Banner Summit 0 in 7040 ft
Mill Creek Summit 3 in 8800 ft
Galena 1 in 7440 ft
Jackson Peak 2 in 7070 ft
Vienna Mine 0 in 8960 ft

Earthquake Activity

City Distance Mag. Time & Date
No recent earthquake activity has been reported nearby.
Minimum magnitude displayed is 2.5.

Coastal Water Temperatures

Place Temperature
No Stations Reporting

Nearby Weather Stations